Bintulu, Malaysia
Current Conditions -  °F | °C
As of 12:00 PM on Tuesday 21 Oct 2014 (Local Time) from WBGB Reporting Station
Broken Clouds Broken Clouds  
Wind Chill: 86°   Ceiling: 30000
Heat Index: 99°   Visibility: 6mi
Dew Point: 79°   Wind: 3mph
Humidity: 79%   Direction: 260°W
Pressure: 29.88"   Gusts: NA
Location:  3.17°N, 113.03°E
Report Text: WBGB 210400Z 26003KT 9999 SCT014 SCT150 BKN300 30/26 Q1012
Loading
Personal Weather Stations






























Interactive Weather Map
Tropical Storm Tracking
New forecast layout! Learn more

10-Day Weather Forecast

Advertisements
Track Severe Weather on mobile